Time;durP1;ratioP1;P1;durP2;ratioP2;P2;SDS_P1;SDS_P2;PMS_P1;PMS_P2;Temp;Humidity;BMP_temperature;BMP_pressure;BME280_temperature;BME280_humidity;BME280_pressure;Samples;Min_cycle;Max_cycle;Signal;HPM_P1;HPM_P2
2021/12/06 00:01:56;;;;;;;65.43;36.70;;;;;;;1.25;100.00;101259.88;4835027;28;20036;-72
2021/12/06 00:04:25;;;;;;;58.10;34.17;;;;;;;1.12;100.00;101258.38;4805232;29;20085;-72
2021/12/06 00:06:55;;;;;;;62.38;36.05;;;;;;;1.13;100.00;101273.31;4823609;28;21012;-73
2021/12/06 00:09:23;;;;;;;71.03;39.28;;;;;;;1.14;100.00;101267.03;4832619;28;20167;-72
2021/12/06 00:11:56;;;;;;;68.35;37.60;;;;;;;1.17;100.00;101272.06;4821723;29;20093;-73
2021/12/06 00:14:27;;;;;;;68.50;38.95;;;;;;;1.15;100.00;101274.00;4819573;28;20070;-73
2021/12/06 00:16:53;;;;;;;61.72;35.13;;;;;;;1.10;100.00;101273.59;4796431;28;20036;-73
2021/12/06 00:19:18;;;;;;;64.65;36.53;;;;;;;1.18;100.00;101273.72;4804264;29;21655;-73
2021/12/06 00:21:44;;;;;;;66.15;37.83;;;;;;;1.18;100.00;101281.69;4818450;29;20043;-73
2021/12/06 00:24:09;;;;;;;65.90;37.67;;;;;;;1.18;100.00;101281.69;4818010;28;20055;-73
2021/12/06 00:26:35;;;;;;;64.88;36.53;;;;;;;1.23;100.00;101278.63;4829349;28;20060;-73
2021/12/06 00:29:00;;;;;;;62.83;35.05;;;;;;;1.25;100.00;101286.44;4839595;28;20129;-73
2021/12/06 00:31:31;;;;;;;72.82;37.67;;;;;;;1.21;100.00;101285.03;4822597;28;20215;-73
2021/12/06 00:34:00;;;;;;;62.70;36.83;;;;;;;1.23;100.00;101288.38;4820400;29;20163;-73
2021/12/06 00:36:30;;;;;;;66.03;35.75;;;;;;;1.23;100.00;101291.88;4799145;29;20632;-73
2021/12/06 00:38:57;;;;;;;64.10;35.28;;;;;;;1.21;100.00;101300.97;4795667;29;20090;-72
2021/12/06 00:41:23;;;;;;;69.38;39.15;;;;;;;1.13;100.00;101301.66;4816089;29;20063;-70
2021/12/06 00:43:49;;;;;;;71.03;38.25;;;;;;;1.06;100.00;101304.03;4799696;29;23791;-71
2021/12/06 00:46:14;;;;;;;68.90;38.88;;;;;;;1.15;100.00;101324.41;4793240;29;20048;-72
2021/12/06 00:48:40;;;;;;;72.57;38.78;;;;;;;1.23;100.00;101310.47;4800504;29;20040;-72
2021/12/06 00:51:05;;;;;;;66.70;37.33;;;;;;;1.26;100.00;101311.97;4774436;29;20051;-70
2021/12/06 00:53:31;;;;;;;68.82;36.25;;;;;;;1.23;100.00;101314.91;4817744;29;20500;-70
2021/12/06 00:55:57;;;;;;;74.32;38.60;;;;;;;1.23;100.00;101312.25;4797798;29;20130;-71
2021/12/06 00:58:23;;;;;;;69.90;38.28;;;;;;;1.19;100.00;101312.56;4792372;29;20534;-70
2021/12/06 01:00:50;;;;;;;69.97;38.13;;;;;;;1.19;100.00;101307.25;4817461;29;20981;-70
2021/12/06 01:03:19;;;;;;;72.10;37.80;;;;;;;1.21;100.00;101306.28;4795296;29;20044;-71
2021/12/06 01:05:45;;;;;;;67.00;36.85;;;;;;;1.23;100.00;101305.16;4797959;29;20059;-70
2021/12/06 01:08:11;;;;;;;69.13;38.53;;;;;;;1.20;100.00;101305.44;4800544;29;20112;-70
2021/12/06 01:10:37;;;;;;;72.35;38.08;;;;;;;1.19;100.00;101314.34;4802130;29;20043;-73
2021/12/06 01:13:03;;;;;;;67.75;37.45;;;;;;;1.19;100.00;101314.34;4818690;29;20031;-72
2021/12/06 01:15:30;;;;;;;75.22;39.67;;;;;;;1.19;100.00;101322.31;4813443;29;20039;-73
2021/12/06 01:17:58;;;;;;;77.25;38.80;;;;;;;1.16;100.00;101320.81;4790098;29;20052;-72
2021/12/06 01:20:28;;;;;;;70.93;38.88;;;;;;;1.16;100.00;101328.75;4817849;29;20047;-73
2021/12/06 01:22:59;;;;;;;75.57;38.95;;;;;;;1.17;100.00;101329.59;4804505;29;26466;-72
2021/12/06 01:33:41;;;;;;;78.40;40.67;;;;;;;1.20;100.00;101334.63;4818022;29;20055;-72
2021/12/06 01:41:40;;;;;;;67.95;38.08;;;;;;;1.31;100.00;101333.66;4797595;29;20059;-73
2021/12/06 01:44:20;;;;;;;74.93;39.75;;;;;;;1.29;100.00;101333.78;4805805;29;21207;-71
2021/12/06 01:46:52;;;;;;;78.28;40.45;;;;;;;1.19;100.00;101333.78;4798389;29;20724;-70
2021/12/06 01:49:19;;;;;;;79.13;41.28;;;;;;;1.21;100.00;101343.44;4784587;29;21061;-70
2021/12/06 01:51:46;;;;;;;76.88;39.90;;;;;;;1.23;100.00;101352.94;4786627;29;20048;-70
2021/12/06 01:54:13;;;;;;;76.70;40.10;;;;;;;1.26;100.00;101351.78;4797121;29;20468;-71
2021/12/06 01:56:39;;;;;;;85.30;42.10;;;;;;;1.24;100.00;101356.41;4807371;29;20059;-73
2021/12/06 01:59:06;;;;;;;75.75;40.60;;;;;;;1.17;100.00;101353.47;4801154;29;20151;-70
2021/12/06 02:01:31;;;;;;;80.03;40.58;;;;;;;1.24;100.00;101349.28;4794211;29;20058;-70
2021/12/06 02:03:58;;;;;;;78.05;40.95;;;;;;;1.26;100.00;101354.44;4806959;29;20063;-70
2021/12/06 02:06:23;;;;;;;77.78;39.67;;;;;;;1.33;100.00;101353.75;4817191;29;24042;-72
2021/12/06 02:08:49;;;;;;;76.15;41.03;;;;;;;1.35;100.00;101353.63;4786720;29;20146;-72
2021/12/06 02:11:14;;;;;;;78.95;39.90;;;;;;;1.42;100.00;101349.41;4819456;29;20040;-70
2021/12/06 02:13:51;;;;;;;78.28;40.45;;;;;;;1.33;100.00;101347.59;4812182;29;20054;-70
2021/12/06 02:16:20;;;;;;;78.10;40.65;;;;;;;1.42;100.00;101346.75;4792122;29;20043;-70
2021/12/06 02:18:50;;;;;;;72.18;39.40;;;;;;;1.38;100.00;101346.22;4817207;29;20110;-70
2021/12/06 02:21:17;;;;;;;77.20;41.88;;;;;;;1.34;100.00;101346.66;4802632;29;20900;-70
2021/12/06 02:23:43;;;;;;;79.90;41.65;;;;;;;1.34;100.00;101344.81;4818321;29;20039;-70
2021/12/06 02:26:08;;;;;;;78.88;42.92;;;;;;;1.33;100.00;101353.75;4815532;29;20047;-70
2021/12/06 02:28:34;;;;;;;77.03;40.53;;;;;;;1.33;100.00;101353.75;4785771;29;20090;-70
2021/12/06 02:30:59;;;;;;;78.78;40.95;;;;;;;1.33;100.00;101363.53;4816941;29;20124;-70
2021/12/06 02:33:25;;;;;;;78.05;40.13;;;;;;;1.34;100.00;101359.91;4827935;28;20051;-70
2021/12/06 02:35:52;;;;;;;80.68;41.78;;;;;;;1.34;100.00;101351.94;4826788;28;21045;-70
2021/12/06 02:38:19;;;;;;;80.20;39.38;;;;;;;1.41;100.00;101358.38;4835269;29;20055;-71
2021/12/06 02:40:44;;;;;;;79.45;40.55;;;;;;;1.37;100.00;101359.59;4800135;29;20651;-70
2021/12/06 02:43:11;;;;;;;76.57;41.97;;;;;;;1.43;100.00;101357.22;4820540;29;20043;-72
2021/12/06 02:45:37;;;;;;;76.68;41.45;;;;;;;1.48;100.00;101356.84;4821007;29;20039;-72
2021/12/06 02:48:06;;;;;;;75.28;40.47;;;;;;;1.38;100.00;101353.34;4825914;28;22892;-72
2021/12/06 02:50:37;;;;;;;79.25;42.38;;;;;;;1.44;100.00;101355.44;4803437;29;20035;-71
2021/12/06 02:53:03;;;;;;;81.63;40.03;;;;;;;1.41;100.00;101351.25;4818915;29;20051;-71
2021/12/06 02:57:57;;;;;;;76.65;40.97;;;;;;;1.43;100.00;101354.56;4817638;29;21272;-70
2021/12/06 03:00:25;;;;;;;78.55;39.88;;;;;;;1.43;100.00;101353.75;4801178;29;20174;-70
2021/12/06 03:02:51;;;;;;;77.07;42.10;;;;;;;1.46;100.00;101349.97;4815347;29;20035;-71
2021/12/06 03:05:16;;;;;;;78.70;42.05;;;;;;;1.44;100.00;101355.44;4839204;28;20755;-70
2021/12/06 03:07:46;;;;;;;81.10;41.15;;;;;;;1.49;100.00;101358.50;4821708;29;20140;-71
2021/12/06 03:10:14;;;;;;;82.15;42.53;;;;;;;1.53;100.00;101359.06;4836684;28;22455;-71
2021/12/06 03:12:40;;;;;;;78.35;40.75;;;;;;;1.54;100.00;101360.72;4828608;28;20052;-70
2021/12/06 03:15:06;;;;;;;72.13;39.72;;;;;;;1.54;100.00;101366.03;4808712;28;20059;-70
2021/12/06 03:17:33;;;;;;;85.20;42.00;;;;;;;1.50;100.00;101365.47;4817590;29;20090;-72
2021/12/06 03:20:00;;;;;;;79.22;40.72;;;;;;;1.44;100.00;101366.06;4805404;29;24216;-71
2021/12/06 03:22:25;;;;;;;83.90;42.38;;;;;;;1.45;100.00;101375.69;4819668;28;20035;-71
2021/12/06 03:24:51;;;;;;;93.57;42.90;;;;;;;1.49;100.00;101373.59;4817622;29;20059;-71
2021/12/06 03:27:17;;;;;;;81.25;41.20;;;;;;;1.42;100.00;101373.31;4817098;28;20717;-71
2021/12/06 03:29:43;;;;;;;88.93;44.30;;;;;;;1.42;100.00;101368.84;4817315;29;20026;-71
2021/12/06 03:32:10;;;;;;;84.30;40.92;;;;;;;1.46;100.00;101372.06;4812487;29;20077;-70
2021/12/06 03:34:36;;;;;;;92.35;43.72;;;;;;;1.39;100.00;101377.06;4806752;29;20058;-71
2021/12/06 03:37:05;;;;;;;84.47;41.50;;;;;;;1.45;100.00;101377.50;4818020;29;20031;-71
2021/12/06 03:39:35;;;;;;;86.15;42.33;;;;;;;1.41;100.00;101377.78;4818446;28;20054;-71
2021/12/06 03:42:04;;;;;;;91.32;42.33;;;;;;;1.39;100.00;101384.22;4832836;28;20149;-70
2021/12/06 03:44:30;;;;;;;86.07;43.20;;;;;;;1.44;100.00;101389.94;4819921;28;20069;-72
2021/12/06 03:47:03;;;;;;;87.40;42.65;;;;;;;1.46;100.00;101379.19;4809251;29;20057;-72
2021/12/06 03:49:29;;;;;;;84.50;39.67;;;;;;;1.47;100.00;101387.00;4820153;29;20838;-72
2021/12/06 03:51:55;;;;;;;85.80;39.92;;;;;;;1.49;100.00;101390.34;4814395;29;20349;-72
2021/12/06 03:54:24;;;;;;;77.72;38.75;;;;;;;1.47;100.00;101381.69;4827476;28;21097;-72
2021/12/06 03:56:50;;;;;;;91.20;40.40;;;;;;;1.42;100.00;101387.41;4820510;29;20126;-71
2021/12/06 03:59:16;;;;;;;95.95;43.08;;;;;;;1.49;100.00;101384.22;4804386;29;21602;-72
2021/12/06 04:01:42;;;;;;;101.68;45.90;;;;;;;1.45;100.00;101390.78;4838699;28;20046;-72
2021/12/06 04:04:09;;;;;;;106.47;45.95;;;;;;;1.48;100.00;101399.31;4815971;29;21451;-72
2021/12/06 04:06:36;;;;;;;90.85;41.33;;;;;;;1.50;100.00;101396.50;4830566;28;20118;-72
2021/12/06 04:09:03;;;;;;;92.65;42.70;;;;;;;1.51;100.00;101399.03;4821646;28;20035;-72
2021/12/06 04:11:29;;;;;;;101.90;43.92;;;;;;;1.51;100.00;101406.13;4834771;28;20051;-72
2021/12/06 04:13:54;;;;;;;98.65;45.75;;;;;;;1.50;100.00;101407.13;4817694;29;20566;-71
2021/12/06 04:16:20;;;;;;;87.85;40.95;;;;;;;1.50;100.00;101405.31;4842867;28;22880;-71
2021/12/06 04:18:46;;;;;;;95.88;42.47;;;;;;;1.48;100.00;101403.78;4811744;29;20154;-71
2021/12/06 04:21:13;;;;;;;95.13;40.78;;;;;;;1.46;100.00;101403.91;4840604;29;20041;-72
2021/12/06 04:23:38;;;;;;;92.38;41.88;;;;;;;1.41;100.00;101403.50;4818824;28;20043;-72
2021/12/06 04:26:04;;;;;;;91.80;39.90;;;;;;;1.45;100.00;101404.06;4832090;28;20928;-72
2021/12/06 04:28:32;;;;;;;89.85;41.70;;;;;;;1.47;100.00;101397.59;4824723;28;20144;-72
2021/12/06 04:30:58;;;;;;;94.18;42.90;;;;;;;1.46;100.00;101395.09;4829234;28;20063;-72
2021/12/06 04:33:24;;;;;;;92.40;41.17;;;;;;;1.40;100.00;101401.81;4809800;28;20909;-72
2021/12/06 04:35:50;;;;;;;87.20;41.70;;;;;;;1.46;100.00;101398.59;4797447;29;20035;-72
2021/12/06 04:38:16;;;;;;;90.43;39.75;;;;;;;1.45;100.00;101410.19;4785425;29;20138;-72
2021/12/06 04:40:42;;;;;;;94.50;41.55;;;;;;;1.42;100.00;101410.47;4815226;29;20082;-72
2021/12/06 04:43:09;;;;;;;99.07;44.03;;;;;;;1.48;100.00;101417.06;4812288;29;20131;-72
2021/12/06 04:45:35;;;;;;;102.75;43.63;;;;;;;1.43;100.00;101428.91;4805277;29;20048;-72
2021/12/06 04:48:00;;;;;;;94.85;42.70;;;;;;;1.48;100.00;101425.84;4798898;29;20031;-73
2021/12/06 04:50:31;;;;;;;102.18;46.70;;;;;;;1.56;100.00;101427.81;4803108;29;21017;-73
2021/12/06 04:53:00;;;;;;;99.38;44.53;;;;;;;1.53;100.00;101426.25;4816497;29;20499;-73
2021/12/06 04:55:45;;;;;;;94.25;41.03;;;;;;;1.47;100.00;101429.47;4814770;29;20031;-74
2021/12/06 04:58:15;;;;;;;99.50;45.22;;;;;;;1.51;100.00;101438.00;4802941;29;20146;-73
2021/12/06 05:00:48;;;;;;;99.85;44.20;;;;;;;1.43;100.00;101447.50;4798341;29;20098;-74
2021/12/06 05:03:14;;;;;;;93.53;43.17;;;;;;;1.45;100.00;101452.69;4812530;29;20059;-73
2021/12/06 05:05:43;;;;;;;106.00;45.47;;;;;;;1.49;100.00;101464.69;4790044;29;20052;-73
2021/12/06 05:08:23;;;;;;;96.43;42.28;;;;;;;1.54;100.00;101459.78;4797218;29;24611;-74
2021/12/06 05:10:49;;;;;;;98.53;41.97;;;;;;;1.55;100.00;101455.34;4803861;29;20599;-73
2021/12/06 05:13:15;;;;;;;106.88;44.55;;;;;;;1.51;100.00;101445.97;4818877;29;20044;-73
2021/12/06 05:15:41;;;;;;;93.75;42.63;;;;;;;1.56;100.00;101441.94;4799426;29;20086;-72
2021/12/06 05:18:07;;;;;;;91.70;39.00;;;;;;;1.57;100.00;101440.09;4809606;29;20184;-72
2021/12/06 05:20:34;;;;;;;87.40;38.90;;;;;;;1.52;100.00;101437.88;4817410;29;20126;-72
2021/12/06 05:23:00;;;;;;;92.00;39.72;;;;;;;1.54;100.00;101451.84;4800476;28;20066;-72
2021/12/06 05:25:26;;;;;;;86.45;40.03;;;;;;;1.51;100.00;101448.63;4818640;29;20040;-72
2021/12/06 05:27:52;;;;;;;87.60;40.28;;;;;;;1.55;100.00;101453.53;4818495;29;20059;-71
2021/12/06 05:30:20;;;;;;;87.63;39.22;;;;;;;1.64;100.00;101451.84;4803632;29;20051;-72
2021/12/06 05:32:46;;;;;;;89.75;40.60;;;;;;;1.54;100.00;101459.78;4818312;29;20179;-71
2021/12/06 05:35:12;;;;;;;96.93;44.33;;;;;;;1.51;100.00;101454.78;4798112;29;20066;-73
2021/12/06 05:37:46;;;;;;;96.53;40.95;;;;;;;1.54;100.00;101456.31;4805859;29;20067;-73
2021/12/06 05:40:15;;;;;;;95.05;41.92;;;;;;;1.60;100.00;101455.75;4817223;29;20049;-72
2021/12/06 05:42:41;;;;;;;91.18;39.00;;;;;;;1.59;100.00;101448.78;4799773;29;20055;-72
2021/12/06 05:45:08;;;;;;;89.97;39.92;;;;;;;1.57;100.00;101451.56;4803373;29;20059;-73
2021/12/06 05:47:33;;;;;;;96.18;40.22;;;;;;;1.65;100.00;101438.44;4799977;29;20036;-73
2021/12/06 05:49:59;;;;;;;97.13;41.40;;;;;;;1.60;100.00;101443.31;4800614;29;20499;-71
2021/12/06 05:52:24;;;;;;;90.55;39.85;;;;;;;1.63;100.00;101450.16;4796918;29;21024;-71
2021/12/06 05:54:50;;;;;;;89.88;40.80;;;;;;;1.56;100.00;101454.38;4790945;29;20170;-72
2021/12/06 05:57:16;;;;;;;103.10;40.80;;;;;;;1.61;100.00;101460.09;4777178;29;20063;-72
2021/12/06 05:59:42;;;;;;;92.75;41.90;;;;;;;1.66;100.00;101449.91;4813699;29;20043;-72
2021/12/06 06:02:09;;;;;;;91.55;41.03;;;;;;;1.63;100.00;101450.16;4783180;29;20070;-72
2021/12/06 06:04:35;;;;;;;98.30;42.50;;;;;;;1.60;100.00;101467.22;4797764;29;20039;-72
2021/12/06 06:07:01;;;;;;;94.97;41.55;;;;;;;1.63;100.00;101451.00;4809386;29;20138;-72
2021/12/06 06:09:26;;;;;;;96.00;42.53;;;;;;;1.62;100.00;101449.34;4805924;29;20058;-72
2021/12/06 06:11:52;;;;;;;92.28;38.45;;;;;;;1.63;100.00;101440.38;4812735;29;20138;-73
2021/12/06 06:14:17;;;;;;;93.00;40.65;;;;;;;1.70;100.00;101429.22;4811613;29;20059;-73
2021/12/06 06:16:53;;;;;;;89.22;38.13;;;;;;;1.67;100.00;101425.00;4806400;29;20109;-73
2021/12/06 06:19:23;;;;;;;82.18;37.55;;;;;;;1.66;100.00;101424.19;4816155;29;23589;-73
2021/12/06 06:21:50;;;;;;;82.70;36.35;;;;;;;1.70;100.00;101430.03;4788542;29;20068;-73
2021/12/06 06:24:15;;;;;;;80.38;38.85;;;;;;;1.65;100.00;101421.63;4802731;29;20082;-73
2021/12/06 06:26:41;;;;;;;90.68;40.33;;;;;;;1.65;100.00;101418.97;4783217;29;23377;-74
2021/12/06 06:29:07;;;;;;;89.38;39.75;;;;;;;1.67;100.00;101419.69;4793154;29;20099;-73
2021/12/06 06:31:33;;;;;;;85.97;36.70;;;;;;;1.66;100.00;101424.19;4820204;28;24429;-73
2021/12/06 06:33:58;;;;;;;95.35;39.13;;;;;;;1.67;100.00;101422.34;4807304;29;20044;-73
2021/12/06 06:36:24;;;;;;;83.30;38.63;;;;;;;1.67;100.00;101420.53;4838989;28;20928;-73
2021/12/06 06:38:49;;;;;;;90.10;38.05;;;;;;;1.59;100.00;101417.75;4838525;28;20043;-72
2021/12/06 06:41:15;;;;;;;82.53;37.40;;;;;;;1.64;100.00;101422.63;4805216;28;20114;-71
2021/12/06 06:43:40;;;;;;;86.22;37.88;;;;;;;1.65;100.00;101430.47;4836867;28;20057;-71
2021/12/06 06:46:06;;;;;;;77.10;34.80;;;;;;;1.59;100.00;101424.88;4816858;29;20059;-72
2021/12/06 06:48:32;;;;;;;75.55;33.20;;;;;;;1.54;100.00;101414.66;4826400;29;20609;-71
2021/12/06 06:50:58;;;;;;;82.07;36.55;;;;;;;1.50;100.00;101423.88;4817345;28;20031;-71
2021/12/06 06:53:24;;;;;;;92.93;39.90;;;;;;;1.52;100.00;101424.59;4805135;29;20117;-72
2021/12/06 06:55:50;;;;;;;95.82;40.70;;;;;;;1.50;100.00;101431.03;4820221;28;20173;-72
2021/12/06 06:58:15;;;;;;;93.88;42.08;;;;;;;1.51;100.00;101430.91;4836528;28;20046;-71
2021/12/06 07:00:41;;;;;;;100.95;40.83;;;;;;;1.48;100.00;101431.16;4823214;28;20303;-71
2021/12/06 07:03:08;;;;;;;103.43;40.67;;;;;;;1.51;100.00;101427.38;4820039;29;20158;-72
2021/12/06 07:05:36;;;;;;;102.88;43.70;;;;;;;1.50;100.00;101426.53;4815917;28;20059;-72
2021/12/06 07:08:02;;;;;;;112.93;44.90;;;;;;;1.49;100.00;101416.91;4793900;28;20067;-72
2021/12/06 07:10:27;;;;;;;108.32;43.88;;;;;;;1.55;100.00;101421.66;4814676;29;20158;-71
2021/12/06 07:12:54;;;;;;;106.47;45.58;;;;;;;1.52;100.00;101419.28;4801915;29;20133;-73
2021/12/06 07:15:23;;;;;;;108.28;42.95;;;;;;;1.56;100.00;101422.50;4815371;29;20162;-73
2021/12/06 07:17:51;;;;;;;113.88;46.42;;;;;;;1.55;100.00;101421.66;4833541;29;20125;-73
2021/12/06 07:20:17;;;;;;;115.90;47.03;;;;;;;1.53;100.00;101434.22;4803350;29;20138;-73
2021/12/06 07:22:42;;;;;;;116.15;47.30;;;;;;;1.60;100.00;101414.09;4832002;28;23762;-72
2021/12/06 07:25:09;;;;;;;110.72;46.33;;;;;;;1.64;100.00;101428.78;4831364;28;20052;-74
2021/12/06 07:27:35;;;;;;;97.30;41.88;;;;;;;1.63;100.00;101432.41;4808172;29;20146;-73
2021/12/06 07:30:00;;;;;;;100.28;41.25;;;;;;;1.59;100.00;101441.66;4835971;28;20054;-72
2021/12/06 07:32:26;;;;;;;103.50;42.78;;;;;;;1.58;100.00;101431.16;4819326;28;21168;-73
2021/12/06 07:34:52;;;;;;;105.68;42.38;;;;;;;1.58;100.00;101437.31;4818336;29;20042;-73
2021/12/06 07:37:17;;;;;;;102.43;43.08;;;;;;;1.53;100.00;101434.22;4815242;29;20082;-73
2021/12/06 07:39:43;;;;;;;97.15;42.17;;;;;;;1.53;100.00;101433.41;4791202;29;20062;-73
2021/12/06 07:42:12;;;;;;;105.28;44.10;;;;;;;1.54;100.00;101437.72;4814172;29;20165;-74
2021/12/06 07:44:39;;;;;;;104.65;41.85;;;;;;;1.60;100.00;101445.13;4799894;29;20142;-74
2021/12/06 07:47:05;;;;;;;109.05;42.53;;;;;;;1.53;100.00;101447.50;4826807;29;20135;-73
2021/12/06 07:49:30;;;;;;;108.97;44.38;;;;;;;1.55;100.00;101453.53;4835935;29;20183;-72
2021/12/06 07:51:56;;;;;;;110.97;43.17;;;;;;;1.52;100.00;101469.75;4821873;29;20047;-73
2021/12/06 07:54:21;;;;;;;114.75;45.47;;;;;;;1.57;100.00;101478.13;4820655;29;20037;-72
2021/12/06 07:56:49;;;;;;;114.53;45.30;;;;;;;1.59;100.00;101470.84;4835109;28;20042;-72
2021/12/06 07:59:15;;;;;;;103.38;43.15;;;;;;;1.58;100.00;101469.19;4793141;29;20119;-72
2021/12/06 08:01:40;;;;;;;111.20;42.80;;;;;;;1.63;100.00;101461.63;4817587;29;20035;-71
2021/12/06 08:04:07;;;;;;;119.88;44.75;;;;;;;1.66;100.00;101458.69;4812373;29;20056;-71
2021/12/06 08:06:33;;;;;;;122.30;46.25;;;;;;;1.71;100.00;101462.75;4823714;29;20127;-71
2021/12/06 08:08:59;;;;;;;114.13;45.00;;;;;;;1.67;100.00;101447.09;4811683;29;21094;-71
2021/12/06 08:11:25;;;;;;;106.55;43.83;;;;;;;1.72;100.00;101448.47;4817218;28;20052;-70
2021/12/06 08:13:54;;;;;;;117.35;43.97;;;;;;;1.78;100.00;101442.63;4814008;29;20051;-70
2021/12/06 08:16:23;;;;;;;101.18;40.85;;;;;;;1.77;100.00;101448.91;4825101;28;20038;-71
2021/12/06 08:18:49;;;;;;;88.80;38.88;;;;;;;1.74;100.00;101439.41;4803023;29;27827;-73
2021/12/06 08:21:17;;;;;;;98.07;39.28;;;;;;;1.75;100.00;101442.88;4813095;29;20050;-72
2021/12/06 08:23:43;;;;;;;92.97;38.45;;;;;;;1.75;100.00;101432.25;4823250;29;20066;-72
2021/12/06 08:26:10;;;;;;;94.28;39.10;;;;;;;1.73;100.00;101434.25;4806812;29;20193;-72
2021/12/06 08:28:36;;;;;;;96.80;41.92;;;;;;;1.72;100.00;101413.94;4815746;29;20066;-72
2021/12/06 08:31:03;;;;;;;100.93;41.03;;;;;;;1.78;100.00;101418.72;4803899;29;20055;-75
2021/12/06 08:33:29;;;;;;;100.93;41.50;;;;;;;1.74;100.00;101418.16;4830286;28;20179;-73
2021/12/06 08:35:56;;;;;;;99.88;40.80;;;;;;;1.79;100.00;101429.22;4814767;29;20047;-73
2021/12/06 08:38:26;;;;;;;106.65;42.20;;;;;;;1.80;100.00;101427.38;4808392;29;20103;-73
2021/12/06 08:40:52;;;;;;;107.45;42.42;;;;;;;1.81;100.00;101421.09;4832760;29;20040;-73
2021/12/06 08:43:19;;;;;;;106.03;40.90;;;;;;;1.90;100.00;101420.25;4819998;28;20071;-73
2021/12/06 08:45:52;;;;;;;104.72;40.28;;;;;;;1.96;100.00;101419.66;4835121;29;20036;-73
2021/12/06 08:48:19;;;;;;;96.65;40.88;;;;;;;1.95;100.00;101419.81;4820927;29;20036;-71
2021/12/06 08:50:45;;;;;;;97.25;39.92;;;;;;;1.96;100.00;101424.97;4822450;28;20146;-70
2021/12/06 08:53:11;;;;;;;91.97;39.70;;;;;;;1.94;100.00;101410.16;4818749;29;20218;-71
2021/12/06 08:55:36;;;;;;;92.72;39.83;;;;;;;1.99;100.00;101418.53;4799365;29;20054;-70
2021/12/06 08:58:02;;;;;;;95.00;39.63;;;;;;;2.07;100.00;101416.84;4797353;29;20930;-70
2021/12/06 09:00:32;;;;;;;95.05;38.78;;;;;;;2.10;100.00;101413.88;4822728;29;20142;-72
2021/12/06 09:02:57;;;;;;;87.65;39.47;;;;;;;2.10;100.00;101421.84;4806991;28;20151;-71
2021/12/06 09:05:26;;;;;;;90.03;39.90;;;;;;;2.19;100.00;101414.03;4823885;29;20208;-70
2021/12/06 09:07:51;;;;;;;81.05;38.67;;;;;;;2.20;100.00;101402.41;4819650;29;20049;-71
2021/12/06 09:10:17;;;;;;;78.78;37.80;;;;;;;2.15;100.00;101414.31;4805137;28;24150;-71
2021/12/06 09:12:43;;;;;;;73.90;35.17;;;;;;;2.18;100.00;101420.31;4819189;29;22916;-72
2021/12/06 09:15:14;;;;;;;76.50;35.45;;;;;;;2.26;100.00;101421.28;4814009;29;20051;-75
2021/12/06 09:17:39;;;;;;;70.88;34.83;;;;;;;2.27;100.00;101420.28;4825956;28;20516;-74
2021/12/06 09:20:07;;;;;;;72.70;34.33;;;;;;;2.31;100.00;101418.16;4823379;29;20047;-73
2021/12/06 09:22:32;;;;;;;74.60;33.38;;;;;;;2.33;100.00;101417.06;4787351;29;20167;-73
2021/12/06 09:24:58;;;;;;;69.20;34.20;;;;;;;2.34;100.00;101420.53;4834906;29;20039;-73
2021/12/06 09:27:24;;;;;;;69.28;33.90;;;;;;;2.47;100.00;101434.38;4817336;28;20040;-73
2021/12/06 09:29:49;;;;;;;63.47;30.02;;;;;;;2.46;100.00;101432.69;4790952;29;20060;-73
2021/12/06 09:32:16;;;;;;;75.07;32.83;;;;;;;2.52;100.00;101424.09;4835281;29;20087;-73
2021/12/06 09:34:44;;;;;;;64.15;33.13;;;;;;;2.51;100.00;101430.41;4816100;28;20107;-73
2021/12/06 09:37:10;;;;;;;68.15;32.85;;;;;;;2.50;100.00;101434.06;4824572;28;20054;-73
2021/12/06 09:39:36;;;;;;;64.53;32.47;;;;;;;2.48;100.00;101435.19;4804695;29;21058;-73
2021/12/06 09:42:02;;;;;;;65.32;32.65;;;;;;;2.44;100.00;101431.16;4823376;29;20952;-73
2021/12/06 09:44:28;;;;;;;65.78;31.95;;;;;;;2.36;100.00;101438.03;4821126;29;20032;-74
2021/12/06 09:46:54;;;;;;;61.47;30.13;;;;;;;2.33;100.00;101438.31;4815877;28;20046;-74
2021/12/06 09:49:22;;;;;;;61.03;30.80;;;;;;;2.34;100.00;101433.84;4794555;29;20056;-73
2021/12/06 09:51:52;;;;;;;62.72;29.67;;;;;;;2.29;100.00;101425.47;4821545;29;20027;-73
2021/12/06 09:54:23;;;;;;;59.28;30.42;;;;;;;2.34;100.00;101431.19;4812994;29;20048;-74
2021/12/06 09:56:50;;;;;;;56.47;28.08;;;;;;;2.38;100.00;101436.06;4821191;29;20131;-72
2021/12/06 09:59:18;;;;;;;60.92;29.83;;;;;;;2.38;100.00;101432.56;4805438;29;20086;-72
2021/12/06 10:01:50;;;;;;;54.63;29.13;;;;;;;2.42;100.00;101431.28;4788481;28;21009;-74
2021/12/06 10:04:19;;;;;;;58.20;29.70;;;;;;;2.50;100.00;101442.06;4821880;29;20035;-74
2021/12/06 10:06:46;;;;;;;56.58;26.75;;;;;;;2.50;100.00;101434.06;4829825;28;20169;-75
2021/12/06 10:09:13;;;;;;;57.72;27.38;;;;;;;2.52;100.00;101434.75;4826127;29;20174;-75
2021/12/06 10:11:39;;;;;;;54.78;26.92;;;;;;;2.45;100.00;101431.00;4834195;29;20038;-73
2021/12/06 10:14:05;;;;;;;52.55;26.98;;;;;;;2.44;100.00;101431.16;4802198;28;20059;-76
2021/12/06 10:16:31;;;;;;;52.20;27.30;;;;;;;2.47;100.00;101439.69;4816484;29;20566;-74
2021/12/06 10:18:58;;;;;;;56.17;27.83;;;;;;;2.38;100.00;101435.22;4815419;29;20026;-74
2021/12/06 10:21:27;;;;;;;58.05;27.10;;;;;;;2.29;100.00;101428.13;4805400;28;20182;-74
2021/12/06 10:23:53;;;;;;;49.10;25.10;;;;;;;2.19;100.00;101432.63;4817853;29;20036;-73
2021/12/06 10:26:22;;;;;;;57.30;27.67;;;;;;;2.20;100.00;101435.13;4798044;29;20980;-74
2021/12/06 10:28:47;;;;;;;56.30;26.98;;;;;;;2.14;100.00;101423.28;4822520;29;20055;-74
2021/12/06 10:31:14;;;;;;;62.28;28.38;;;;;;;2.22;100.00;101419.06;4817787;29;21249;-74
2021/12/06 10:33:45;;;;;;;56.42;26.48;;;;;;;2.18;100.00;101407.00;4817462;29;20055;-74
2021/12/06 10:36:15;;;;;;;56.28;26.55;;;;;;;2.06;100.00;101403.69;4833817;28;20039;-74
2021/12/06 10:38:53;;;;;;;61.67;26.63;;;;;;;1.94;100.00;101405.69;4815464;28;20124;-74
2021/12/06 10:41:21;;;;;;;56.63;28.48;;;;;;;1.90;100.00;101393.69;4810140;29;20055;-74
2021/12/06 10:43:57;;;;;;;64.07;28.40;;;;;;;1.94;100.00;101384.44;4816535;28;20110;-74
2021/12/06 10:46:24;;;;;;;62.65;28.38;;;;;;;1.95;100.00;101372.81;4801455;29;20056;-73
2021/12/06 10:48:53;;;;;;;63.80;28.85;;;;;;;2.08;100.00;101378.66;4832760;29;20039;-74
2021/12/06 10:51:19;;;;;;;65.53;29.13;;;;;;;2.02;100.00;101373.91;4834003;28;20035;-74
2021/12/06 10:53:51;;;;;;;63.78;29.23;;;;;;;2.05;100.00;101370.97;4806963;29;20065;-74
2021/12/06 10:56:22;;;;;;;62.08;28.00;;;;;;;2.00;100.00;101362.63;4836951;28;20031;-74
2021/12/06 10:58:50;;;;;;;67.28;28.48;;;;;;;2.04;100.00;101371.13;4834525;28;20047;-74
2021/12/06 11:01:19;;;;;;;64.05;29.40;;;;;;;2.07;100.00;101361.06;4819122;28;20056;-74
2021/12/06 11:03:47;;;;;;;63.33;29.35;;;;;;;2.12;100.00;101358.78;4819084;29;20039;-75
2021/12/06 11:06:19;;;;;;;62.75;30.02;;;;;;;2.13;100.00;101355.13;4824291;28;21123;-75
2021/12/06 11:08:51;;;;;;;62.78;29.13;;;;;;;2.09;100.00;101359.06;4821699;29;20038;-75
2021/12/06 11:11:20;;;;;;;75.50;30.05;;;;;;;2.09;100.00;101364.38;4803268;29;20957;-74
2021/12/06 11:13:55;;;;;;;70.43;30.60;;;;;;;2.02;100.00;101339.38;4813132;29;20109;-74
2021/12/06 11:16:29;;;;;;;66.15;30.35;;;;;;;2.12;100.00;101340.19;4841965;28;24263;-73
2021/12/06 11:18:57;;;;;;;62.30;30.63;;;;;;;2.13;100.00;101341.84;4807984;29;20055;-74
2021/12/06 11:21:38;;;;;;;75.95;33.58;;;;;;;2.14;100.00;101340.88;4835730;29;20462;-73
2021/12/06 11:24:05;;;;;;;69.32;31.83;;;;;;;2.30;100.00;101339.41;4837170;29;20971;-74